Beaumont, Belgium
Current Conditions -  °F | °C
As of 11:33 AM on Thursday 23 Oct 2014 (Local Time) from EBFS Reporting Station
Broken Clouds Broken Clouds  
Wind Chill: 45°   Ceiling: 1000
Heat Index: 48°   Visibility: 4mi
Dew Point: 46°   Wind: 8mph
Humidity: 93%   Direction: 230°SW
Pressure: 30.24"   Gusts: NA
Location:  50.24°N, 4.24°E
Report Text: EBFS 230933Z 23007KT 6000 SCT006 BKN010 BKN029 09/08 Q1024 YLO GRN TEMPO YLO
Loading
Personal Weather Stations






























Interactive Weather Map
Tropical Storm Tracking
New forecast layout! Learn more

10-Day Weather Forecast

Advertisements
Track Severe Weather on mobile